Time;durP1;ratioP1;P1;durP2;ratioP2;P2;SDS_P1;SDS_P2;PMS_P1;PMS_P2;Temp;Humidity;BMP_temperature;BMP_pressure;BME280_temperature;BME280_humidity;BME280_pressure;Samples;Min_cycle;Max_cycle;Signal;HPM_P1;HPM_P2
2022/09/12 00:00:40;;;;;;;17.65;13.82;;;16.40;99.90;;;;;;5031579;28;20121;-75
2022/09/12 00:03:05;;;;;;;17.80;13.77;;;16.30;99.90;;;;;;5031461;28;20104;-76
2022/09/12 00:05:32;;;;;;;16.90;13.10;;;16.30;99.90;;;;;;5031298;28;20022;-76
2022/09/12 00:07:58;;;;;;;16.15;13.18;;;16.30;99.90;;;;;;5031392;28;20366;-76
2022/09/12 00:10:24;;;;;;;16.95;14.10;;;16.30;99.90;;;;;;5031327;28;20024;-76
2022/09/12 00:12:50;;;;;;;16.95;13.73;;;16.30;99.90;;;;;;5031232;28;20112;-76
2022/09/12 00:15:17;;;;;;;17.20;13.32;;;16.20;99.90;;;;;;5031119;28;20500;-76
2022/09/12 00:17:42;;;;;;;16.55;12.70;;;16.20;99.90;;;;;;5031180;28;20025;-76
2022/09/12 00:20:09;;;;;;;16.83;12.13;;;16.20;99.90;;;;;;5031646;28;20021;-77
2022/09/12 00:22:35;;;;;;;16.70;12.60;;;16.20;99.90;;;;;;5031116;28;20021;-75
2022/09/12 00:25:02;;;;;;;17.60;12.88;;;16.20;99.90;;;;;;5031400;28;20037;-76
2022/09/12 00:27:28;;;;;;;16.10;12.85;;;16.20;99.90;;;;;;5031219;28;20025;-76
2022/09/12 00:29:54;;;;;;;16.92;13.15;;;16.10;99.90;;;;;;5029923;28;20581;-75
2022/09/12 00:32:20;;;;;;;17.42;14.05;;;16.10;99.90;;;;;;5030999;28;20039;-76
2022/09/12 00:34:45;;;;;;;20.10;13.07;;;16.10;99.90;;;;;;5031294;28;20048;-77
2022/09/12 00:37:11;;;;;;;17.42;14.00;;;16.10;99.90;;;;;;5031251;28;20017;-76
2022/09/12 00:39:37;;;;;;;15.90;12.88;;;16.10;99.90;;;;;;5031108;28;20536;-75
2022/09/12 00:42:03;;;;;;;18.15;13.30;;;16.10;99.90;;;;;;5031172;28;20417;-75
2022/09/12 00:44:29;;;;;;;16.27;13.40;;;16.10;99.90;;;;;;5031066;28;20030;-75
2022/09/12 00:47:22;;;;;;;20.27;14.10;;;16.10;99.90;;;;;;5030569;28;20037;-76
2022/09/12 00:49:53;;;;;;;15.38;12.30;;;16.10;99.90;;;;;;5030638;28;20060;-76
2022/09/12 00:52:22;;;;;;;16.33;13.10;;;16.10;99.90;;;;;;5030856;28;20025;-76
2022/09/12 00:55:00;;;;;;;16.17;13.50;;;16.10;99.90;;;;;;5030601;28;20033;-76
2022/09/12 00:57:32;;;;;;;19.50;14.10;;;16.10;99.90;;;;;;5031010;28;20037;-77
2022/09/12 01:00:15;;;;;;;16.17;13.25;;;16.10;99.90;;;;;;5030644;28;20022;-76
2022/09/12 01:02:43;;;;;;;16.52;12.95;;;16.10;99.90;;;;;;5030833;28;20037;-76
2022/09/12 01:05:10;;;;;;;21.35;14.40;;;16.10;99.90;;;;;;5030498;28;20242;-76
2022/09/12 01:07:37;;;;;;;17.15;12.98;;;16.10;99.90;;;;;;5030615;28;20029;-76
2022/09/12 01:10:05;;;;;;;16.60;13.52;;;16.10;99.90;;;;;;5030871;28;20109;-76
2022/09/12 01:12:31;;;;;;;15.93;12.48;;;16.10;99.90;;;;;;5030362;28;20026;-75
2022/09/12 01:14:58;;;;;;;17.73;13.70;;;16.10;99.90;;;;;;5030157;28;20025;-75
2022/09/12 01:17:31;;;;;;;14.70;12.45;;;16.10;99.90;;;;;;5030512;28;20025;-76
2022/09/12 01:20:20;;;;;;;18.15;13.30;;;16.10;99.90;;;;;;5030339;28;20036;-77
2022/09/12 01:23:20;;;;;;;15.48;12.10;;;16.10;99.90;;;;;;5030137;28;20021;-76
2022/09/12 01:26:16;;;;;;;23.73;13.35;;;16.10;99.90;;;;;;5030254;28;20036;-76
2022/09/12 01:29:14;;;;;;;18.08;13.85;;;16.10;99.90;;;;;;5030333;28;20021;-76
2022/09/12 01:31:42;;;;;;;21.30;13.95;;;16.10;99.90;;;;;;5029980;28;20010;-76
2022/09/12 01:34:21;;;;;;;19.63;14.00;;;16.10;99.90;;;;;;5030107;28;20691;-76
2022/09/12 01:36:52;;;;;;;17.33;13.93;;;16.10;99.90;;;;;;5030204;28;20111;-75
2022/09/12 01:39:21;;;;;;;19.63;13.32;;;16.00;99.90;;;;;;5030052;28;20017;-76
2022/09/12 01:41:53;;;;;;;19.42;13.57;;;16.00;99.90;;;;;;5029891;28;20040;-75
2022/09/12 01:44:29;;;;;;;18.25;12.52;;;16.00;99.90;;;;;;5030067;28;20306;-76
2022/09/12 01:47:09;;;;;;;16.95;12.70;;;16.00;99.90;;;;;;5029910;28;20367;-75
2022/09/12 01:49:58;;;;;;;16.58;12.57;;;16.00;99.90;;;;;;5029003;28;20061;-75
2022/09/12 01:52:36;;;;;;;20.80;14.43;;;15.90;99.90;;;;;;5023771;28;20036;-75
2022/09/12 01:55:23;;;;;;;18.08;13.27;;;15.90;99.90;;;;;;5043972;28;20431;-76
2022/09/12 01:58:06;;;;;;;21.67;13.68;;;15.90;99.90;;;;;;5029959;28;20037;-76
2022/09/12 02:00:41;;;;;;;19.70;13.50;;;15.90;99.90;;;;;;5029698;28;20044;-75
2022/09/12 02:03:09;;;;;;;19.23;13.40;;;15.90;99.90;;;;;;5030053;28;20028;-75
2022/09/12 02:05:42;;;;;;;22.75;13.55;;;15.90;99.90;;;;;;5029827;28;20025;-76
2022/09/12 02:08:10;;;;;;;18.63;13.57;;;15.90;99.90;;;;;;5030032;28;20163;-75
2022/09/12 02:10:54;;;;;;;20.88;14.10;;;15.90;99.90;;;;;;5029867;28;20025;-76
2022/09/12 02:13:45;;;;;;;18.05;13.82;;;15.90;99.90;;;;;;5029791;28;20025;-75
2022/09/12 02:16:35;;;;;;;20.77;13.48;;;15.90;99.90;;;;;;5029859;28;20436;-75
2022/09/12 02:19:14;;;;;;;20.80;14.43;;;15.80;99.90;;;;;;5030019;28;20029;-76
2022/09/12 02:21:44;;;;;;;17.23;13.40;;;15.80;99.90;;;;;;5030142;28;20021;-76
2022/09/12 02:24:12;;;;;;;20.13;14.05;;;15.80;99.90;;;;;;5029713;28;20030;-76
2022/09/12 02:26:51;;;;;;;21.55;14.73;;;15.80;99.90;;;;;;5029808;28;20500;-75
2022/09/12 02:29:17;;;;;;;21.77;16.55;;;15.80;99.90;;;;;;5029784;28;20397;-76
2022/09/12 02:31:48;;;;;;;20.23;15.82;;;15.80;99.90;;;;;;5029688;28;20029;-76
2022/09/12 02:34:22;;;;;;;23.52;16.02;;;15.90;99.90;;;;;;5029562;28;20033;-76
2022/09/12 02:36:49;;;;;;;22.48;16.17;;;15.90;99.90;;;;;;5030609;28;20032;-76
2022/09/12 02:39:18;;;;;;;23.27;16.77;;;15.90;99.90;;;;;;5034058;28;20072;-76
2022/09/12 02:41:46;;;;;;;23.33;16.88;;;16.00;99.90;;;;;;5033486;28;20053;-76
2022/09/12 02:44:12;;;;;;;23.90;16.50;;;15.90;99.90;;;;;;5033370;28;20108;-77
2022/09/12 02:46:45;;;;;;;23.15;16.52;;;15.90;99.90;;;;;;5033134;28;20061;-76
2022/09/12 02:49:11;;;;;;;26.20;16.88;;;16.00;99.90;;;;;;5033112;28;20041;-77
2022/09/12 02:51:37;;;;;;;22.08;16.38;;;16.00;99.90;;;;;;5032975;28;20390;-76
2022/09/12 02:54:05;;;;;;;23.17;16.65;;;16.00;99.90;;;;;;5033373;28;20029;-77
2022/09/12 02:56:31;;;;;;;26.92;17.65;;;16.00;99.90;;;;;;5033519;28;20429;-76
2022/09/12 02:59:04;;;;;;;29.48;18.23;;;16.10;99.90;;;;;;5032890;28;20053;-76
2022/09/12 03:02:02;;;;;;;28.65;17.20;;;16.00;99.90;;;;;;5033971;28;20021;-76
2022/09/12 03:04:31;;;;;;;23.67;16.52;;;16.10;99.90;;;;;;5032907;28;20076;-75
2022/09/12 03:07:02;;;;;;;23.98;15.50;;;16.10;99.90;;;;;;5032745;28;20021;-76
2022/09/12 03:09:47;;;;;;;24.27;17.05;;;16.10;99.90;;;;;;5031373;28;20079;-76
2022/09/12 03:12:38;;;;;;;23.93;17.67;;;16.10;99.90;;;;;;5032854;28;20026;-76
2022/09/12 03:15:06;;;;;;;27.27;18.77;;;16.10;99.90;;;;;;5032919;28;20037;-76
2022/09/12 03:17:32;;;;;;;27.10;17.63;;;16.10;99.90;;;;;;5032585;28;20041;-77
2022/09/12 03:21:02;;;;;;;23.35;17.45;;;16.20;99.90;;;;;;5032361;28;20029;-76
2022/09/12 03:23:37;;;;;;;30.88;17.75;;;16.20;99.90;;;;;;4970917;28;20051;-77
2022/09/12 03:26:11;;;;;;;28.58;18.90;;;16.20;99.90;;;;;;4970968;28;20077;-76
2022/09/12 03:28:39;;;;;;;27.83;18.45;;;16.20;99.90;;;;;;4970995;28;20518;-77
2022/09/12 03:31:13;;;;;;;29.42;18.42;;;16.30;99.90;;;;;;4970668;28;20121;-76
2022/09/12 03:33:38;;;;;;;27.85;19.25;;;16.30;99.90;;;;;;4970821;28;20039;-76
2022/09/12 03:36:04;;;;;;;27.08;18.42;;;16.30;99.90;;;;;;4970598;28;20406;-76
2022/09/12 03:38:30;;;;;;;27.90;18.50;;;16.30;99.90;;;;;;4970657;28;20090;-76
2022/09/12 03:40:55;;;;;;;27.63;18.58;;;16.30;99.90;;;;;;4970740;28;20031;-76
2022/09/12 03:43:21;;;;;;;30.88;19.58;;;16.30;99.90;;;;;;4970681;28;20034;-76
2022/09/12 03:45:50;;;;;;;30.83;18.85;;;16.30;99.90;;;;;;4970530;28;20476;-76
2022/09/12 03:48:16;;;;;;;27.75;18.17;;;16.30;99.90;;;;;;4969878;28;20055;-76
2022/09/12 03:50:41;;;;;;;25.05;18.38;;;16.30;99.90;;;;;;4971616;28;20493;-76
2022/09/12 03:53:07;;;;;;;27.35;18.33;;;16.30;99.90;;;;;;4971663;28;20120;-76
2022/09/12 03:55:33;;;;;;;28.27;19.52;;;16.30;99.90;;;;;;4972036;28;20046;-76
2022/09/12 03:57:58;;;;;;;25.50;18.98;;;16.30;99.90;;;;;;4966800;28;20045;-76
2022/09/12 04:00:24;;;;;;;29.73;20.13;;;16.30;99.90;;;;;;5016788;28;20034;-76
2022/09/12 04:02:55;;;;;;;28.92;19.42;;;16.30;99.90;;;;;;5066674;28;20021;-77
2022/09/12 04:05:22;;;;;;;27.15;18.77;;;16.30;99.90;;;;;;5032615;28;20024;-76
2022/09/12 04:07:47;;;;;;;29.58;18.77;;;16.30;99.90;;;;;;5065842;28;20257;-77
2022/09/12 04:10:13;;;;;;;27.75;19.27;;;16.30;99.90;;;;;;5034162;28;20099;-77
2022/09/12 04:12:39;;;;;;;29.23;19.23;;;16.30;99.90;;;;;;5033541;28;20105;-76
2022/09/12 04:15:06;;;;;;;25.33;17.50;;;16.30;99.90;;;;;;5033645;28;20033;-77
2022/09/12 04:17:33;;;;;;;25.50;18.73;;;16.30;99.90;;;;;;5031502;28;20402;-76
2022/09/12 04:19:59;;;;;;;25.73;18.50;;;16.30;99.90;;;;;;5031590;28;20037;-76
2022/09/12 04:22:24;;;;;;;27.40;19.35;;;16.30;99.90;;;;;;5032644;28;20385;-76
2022/09/12 04:24:50;;;;;;;31.08;19.70;;;16.20;99.90;;;;;;5037015;28;20068;-77
2022/09/12 04:27:16;;;;;;;28.02;18.67;;;16.20;99.90;;;;;;5045062;28;20170;-75
2022/09/12 04:29:41;;;;;;;26.17;18.10;;;16.20;99.90;;;;;;5036497;28;20017;-77
2022/09/12 04:32:07;;;;;;;28.65;19.58;;;16.20;99.90;;;;;;5031903;28;20629;-76
2022/09/12 04:34:33;;;;;;;28.15;19.63;;;16.10;99.90;;;;;;5032112;28;20045;-76
2022/09/12 04:36:58;;;;;;;25.95;18.65;;;16.10;99.90;;;;;;5030940;28;20036;-76
2022/09/12 04:39:24;;;;;;;29.73;19.70;;;16.10;99.90;;;;;;5032879;28;20021;-76
2022/09/12 04:41:50;;;;;;;27.35;19.67;;;16.10;99.90;;;;;;5042487;28;20013;-76
2022/09/12 04:44:16;;;;;;;32.55;19.73;;;16.00;99.90;;;;;;5039092;28;20053;-76
2022/09/12 04:46:44;;;;;;;28.50;19.48;;;16.00;99.90;;;;;;5038430;28;20406;-76
2022/09/12 04:49:11;;;;;;;26.50;19.17;;;16.00;99.90;;;;;;5031696;28;20057;-76
2022/09/12 04:51:39;;;;;;;29.73;20.25;;;16.00;99.90;;;;;;5033781;28;20396;-76
2022/09/12 04:54:09;;;;;;;28.23;18.42;;;16.00;99.90;;;;;;5042268;28;20059;-76
2022/09/12 04:56:39;;;;;;;27.63;19.60;;;15.90;99.90;;;;;;5044079;28;20021;-76
2022/09/12 04:59:05;;;;;;;26.30;18.85;;;15.90;99.90;;;;;;5043093;28;20468;-77
2022/09/12 05:01:31;;;;;;;28.00;19.20;;;15.80;99.90;;;;;;5042764;28;20438;-76
2022/09/12 05:03:59;;;;;;;28.92;18.95;;;15.80;99.90;;;;;;5047112;28;20049;-77
2022/09/12 05:06:30;;;;;;;27.08;19.20;;;15.80;99.90;;;;;;5048026;28;20115;-76
2022/09/12 05:08:57;;;;;;;32.42;19.67;;;15.70;99.90;;;;;;5046290;28;20033;-76
2022/09/12 05:11:26;;;;;;;29.55;19.08;;;15.70;99.90;;;;;;5046583;28;20021;-77
2022/09/12 05:13:53;;;;;;;29.05;19.55;;;15.70;99.90;;;;;;5036330;28;20040;-76
2022/09/12 05:16:19;;;;;;;29.40;19.40;;;15.60;99.90;;;;;;5033777;28;20028;-76
2022/09/12 05:18:46;;;;;;;31.25;19.67;;;15.60;99.90;;;;;;5029461;28;20033;-76
2022/09/12 05:21:14;;;;;;;25.33;18.52;;;15.60;99.90;;;;;;5035140;28;20076;-76
2022/09/12 05:23:40;;;;;;;29.42;20.27;;;15.60;99.90;;;;;;5043839;28;20033;-76
2022/09/12 05:26:07;;;;;;;28.55;20.10;;;15.50;99.90;;;;;;5032833;28;20457;-76
2022/09/12 05:28:37;;;;;;;32.42;19.30;;;15.50;99.90;;;;;;5036526;28;20071;-76
2022/09/12 05:31:04;;;;;;;29.45;19.88;;;15.50;99.90;;;;;;5029594;28;20500;-76
2022/09/12 05:33:32;;;;;;;28.67;19.85;;;15.50;99.90;;;;;;5033421;28;20448;-76
2022/09/12 05:35:58;;;;;;;30.92;19.30;;;15.40;99.90;;;;;;5031676;28;20040;-76
2022/09/12 05:38:24;;;;;;;33.72;19.90;;;15.40;99.90;;;;;;5037398;28;20029;-75
2022/09/12 05:40:50;;;;;;;30.90;21.25;;;15.50;99.90;;;;;;5037628;28;20025;-75
2022/09/12 05:43:16;;;;;;;29.90;20.73;;;15.50;99.90;;;;;;5039385;28;20505;-76
2022/09/12 05:45:41;;;;;;;33.13;19.92;;;15.50;99.90;;;;;;5036948;28;20022;-76
2022/09/12 05:48:07;;;;;;;30.17;20.75;;;15.50;99.90;;;;;;5029665;28;20052;-76
2022/09/12 05:50:33;;;;;;;35.50;21.20;;;15.50;99.90;;;;;;5029821;28;20064;-76
2022/09/12 05:52:58;;;;;;;32.83;21.30;;;15.50;99.90;;;;;;5029699;28;20478;-76
2022/09/12 05:55:24;;;;;;;35.47;20.85;;;15.50;99.90;;;;;;5029639;28;20014;-76
2022/09/12 05:57:50;;;;;;;34.97;21.80;;;15.50;99.90;;;;;;5040580;28;20021;-76
2022/09/12 06:00:18;;;;;;;34.50;21.73;;;15.50;99.90;;;;;;5033419;28;20028;-75
2022/09/12 06:02:43;;;;;;;32.00;21.58;;;15.50;99.90;;;;;;5028895;28;20033;-75
2022/09/12 06:05:09;;;;;;;32.85;21.20;;;15.50;99.90;;;;;;5032503;28;20025;-75
2022/09/12 06:07:35;;;;;;;34.08;21.08;;;15.50;99.90;;;;;;5033152;28;20109;-76
2022/09/12 06:10:02;;;;;;;31.48;20.27;;;15.50;99.90;;;;;;5030971;28;20485;-75
2022/09/12 06:12:29;;;;;;;33.00;21.23;;;15.50;99.90;;;;;;5040538;28;20021;-75
2022/09/12 06:14:55;;;;;;;34.70;21.17;;;15.50;99.90;;;;;;5034853;28;20025;-76
2022/09/12 06:17:21;;;;;;;37.03;22.25;;;15.50;99.90;;;;;;5037807;28;20022;-76
2022/09/12 06:19:49;;;;;;;38.60;24.00;;;15.50;99.90;;;;;;5033267;28;20406;-75
2022/09/12 06:22:15;;;;;;;38.10;23.65;;;15.60;99.90;;;;;;5032236;28;20029;-75
2022/09/12 06:24:40;;;;;;;41.05;25.40;;;15.60;99.90;;;;;;5036810;28;20053;-75
2022/09/12 06:27:06;;;;;;;43.17;26.05;;;15.60;99.90;;;;;;5045810;28;20090;-75
2022/09/12 06:29:32;;;;;;;44.00;26.27;;;15.70;99.90;;;;;;5034166;28;20044;-76
2022/09/12 06:31:57;;;;;;;46.08;27.90;;;15.70;99.90;;;;;;5032765;28;20338;-75
2022/09/12 06:34:25;;;;;;;44.22;27.60;;;15.80;99.90;;;;;;5034103;28;20026;-75
2022/09/12 06:36:51;;;;;;;46.47;28.63;;;15.80;99.90;;;;;;5043891;28;20434;-75
2022/09/12 06:39:20;;;;;;;49.70;29.55;;;15.90;99.90;;;;;;5032449;28;20064;-75
2022/09/12 06:41:47;;;;;;;50.13;29.15;;;15.90;99.90;;;;;;5031112;28;20436;-74
2022/09/12 06:44:15;;;;;;;45.35;27.55;;;16.00;99.90;;;;;;5037976;28;20025;-75
2022/09/12 06:46:41;;;;;;;48.80;30.15;;;16.10;99.90;;;;;;5030601;28;20059;-75
2022/09/12 06:49:07;;;;;;;52.42;30.65;;;16.10;99.90;;;;;;5042130;28;20085;-75
2022/09/12 06:51:35;;;;;;;50.00;30.17;;;16.20;99.90;;;;;;5032141;28;20111;-75
2022/09/12 06:54:01;;;;;;;41.67;28.92;;;16.20;99.90;;;;;;5032500;28;20068;-75
2022/09/12 06:56:27;;;;;;;45.25;29.92;;;16.30;99.90;;;;;;5032385;28;20052;-75
2022/09/12 06:58:55;;;;;;;47.28;29.92;;;16.40;99.90;;;;;;5028642;28;20025;-75
2022/09/12 07:01:22;;;;;;;54.42;29.98;;;16.40;99.90;;;;;;5032893;28;20027;-75
2022/09/12 07:03:50;;;;;;;49.88;30.27;;;16.50;99.90;;;;;;5032873;28;20029;-75
2022/09/12 07:06:18;;;;;;;48.55;29.27;;;16.50;99.90;;;;;;5032692;28;20032;-76
2022/09/12 07:08:44;;;;;;;50.95;30.98;;;16.60;99.90;;;;;;5032872;28;20040;-75
2022/09/12 07:11:14;;;;;;;46.92;30.58;;;16.60;99.90;;;;;;5032484;28;20028;-75
2022/09/12 07:13:41;;;;;;;47.38;28.80;;;16.70;99.90;;;;;;5031432;28;20449;-75
2022/09/12 07:16:08;;;;;;;50.17;29.35;;;16.70;99.90;;;;;;5032014;28;20100;-75
2022/09/12 07:18:36;;;;;;;47.45;30.15;;;16.80;99.90;;;;;;5032946;28;20017;-75
2022/09/12 07:21:04;;;;;;;47.03;29.13;;;16.80;99.90;;;;;;5032785;28;20029;-75
2022/09/12 07:23:30;;;;;;;47.30;29.45;;;16.90;99.90;;;;;;5032258;28;20034;-75
2022/09/12 07:25:57;;;;;;;46.72;28.23;;;16.90;99.90;;;;;;5033284;28;20022;-76
2022/09/12 07:28:24;;;;;;;50.75;28.83;;;17.00;99.90;;;;;;5043429;28;20036;-75
2022/09/12 07:30:52;;;;;;;46.78;29.13;;;17.10;99.90;;;;;;5032127;28;20030;-75
2022/09/12 07:33:19;;;;;;;44.45;27.98;;;17.10;99.90;;;;;;5032532;28;20087;-76
2022/09/12 07:35:45;;;;;;;47.17;29.35;;;17.20;99.90;;;;;;5031995;28;20034;-76
2022/09/12 07:38:11;;;;;;;42.05;27.20;;;17.30;99.90;;;;;;5031942;28;20022;-75
2022/09/12 07:40:36;;;;;;;50.05;28.35;;;17.40;99.90;;;;;;5032229;28;20021;-76
2022/09/12 07:43:02;;;;;;;47.58;28.83;;;17.50;99.90;;;;;;5031331;28;20029;-75
2022/09/12 07:45:28;;;;;;;43.97;28.17;;;17.50;99.90;;;;;;5032399;28;20029;-75
2022/09/12 07:47:54;;;;;;;41.47;27.92;;;17.60;99.90;;;;;;5033854;28;20065;-75
2022/09/12 07:50:20;;;;;;;47.17;28.55;;;17.70;99.90;;;;;;5032160;28;20111;-75
2022/09/12 07:52:45;;;;;;;45.00;27.90;;;17.70;99.90;;;;;;5031787;28;20032;-75
2022/09/12 07:55:11;;;;;;;44.13;28.13;;;17.80;99.90;;;;;;5030906;28;20044;-75
2022/09/12 07:57:37;;;;;;;46.10;27.70;;;17.90;99.90;;;;;;5032259;28;20461;-75
2022/09/12 08:00:04;;;;;;;45.28;27.55;;;18.00;99.90;;;;;;5031980;28;20425;-75
2022/09/12 08:02:30;;;;;;;36.70;25.95;;;18.10;99.90;;;;;;5031620;28;20022;-75
2022/09/12 08:04:56;;;;;;;38.83;25.23;;;18.20;99.90;;;;;;5031838;28;20095;-75
2022/09/12 08:07:21;;;;;;;40.83;25.58;;;18.30;99.90;;;;;;5031515;28;20079;-75
2022/09/12 08:09:47;;;;;;;34.45;22.95;;;18.40;99.90;;;;;;5031251;28;20036;-75
2022/09/12 08:12:13;;;;;;;35.30;22.20;;;18.50;99.90;;;;;;5031360;28;20035;-75
2022/09/12 08:14:39;;;;;;;31.25;20.30;;;18.60;99.90;;;;;;5018003;28;20033;-75
2022/09/12 08:17:05;;;;;;;33.38;20.83;;;18.80;99.90;;;;;;5031334;28;20029;-75
2022/09/12 08:19:31;;;;;;;28.27;19.73;;;18.90;99.90;;;;;;5031508;28;20018;-76
2022/09/12 08:21:56;;;;;;;28.92;19.75;;;19.00;99.90;;;;;;5030727;28;20088;-75
2022/09/12 08:24:23;;;;;;;29.77;19.35;;;19.20;99.90;;;;;;5030979;28;20025;-75
2022/09/12 08:26:49;;;;;;;25.52;18.10;;;19.30;99.90;;;;;;5031579;28;20386;-75
2022/09/12 08:29:15;;;;;;;25.58;17.85;;;19.40;99.90;;;;;;5031026;28;20025;-75
2022/09/12 08:31:41;;;;;;;24.80;16.38;;;19.50;99.90;;;;;;5029927;28;20074;-75
2022/09/12 08:34:07;;;;;;;23.55;16.50;;;19.60;99.90;;;;;;5030829;28;20163;-74
2022/09/12 08:36:33;;;;;;;25.40;15.77;;;19.70;99.90;;;;;;5033047;28;20022;-75
2022/09/12 08:39:03;;;;;;;19.55;14.38;;;19.80;99.90;;;;;;5033380;28;20024;-75
2022/09/12 08:41:33;;;;;;;20.27;13.13;;;19.90;99.90;;;;;;5030303;28;20096;-75
2022/09/12 08:44:29;;;;;;;22.17;14.00;;;20.00;99.90;;;;;;5030023;28;20090;-75
2022/09/12 08:47:00;;;;;;;19.45;13.73;;;20.10;99.90;;;;;;5033689;28;20053;-75
2022/09/12 08:49:50;;;;;;;19.63;13.00;;;20.20;99.90;;;;;;5039665;28;20025;-75
2022/09/12 08:52:20;;;;;;;19.45;13.07;;;20.40;99.90;;;;;;5024892;28;20033;-75
2022/09/12 08:54:46;;;;;;;19.88;12.35;;;20.40;99.90;;;;;;5026272;28;20120;-75
2022/09/12 08:57:14;;;;;;;20.17;12.18;;;20.50;99.90;;;;;;5031411;28;20101;-74
2022/09/12 08:59:45;;;;;;;17.80;11.80;;;20.60;99.90;;;;;;5032061;28;20537;-75
2022/09/12 09:02:33;;;;;;;14.68;10.30;;;20.70;99.90;;;;;;5028031;28;20116;-75
2022/09/12 09:05:31;;;;;;;15.77;10.90;;;20.80;99.90;;;;;;5029730;28;20049;-75
2022/09/12 09:08:10;;;;;;;14.27;9.85;;;20.90;99.90;;;;;;5029582;28;20060;-75
2022/09/12 09:10:52;;;;;;;13.85;9.93;;;21.00;99.90;;;;;;5034366;28;20021;-75
2022/09/12 09:16:37;;;;;;;11.50;8.48;;;21.20;99.90;;;;;;5035566;28;20067;-75
2022/09/12 09:19:10;;;;;;;11.82;7.80;;;21.40;99.90;;;;;;5038635;28;20025;-75
2022/09/12 09:22:00;;;;;;;9.90;7.80;;;21.60;99.90;;;;;;5032158;28;20033;-75
2022/09/12 09:24:33;;;;;;;7.15;5.93;;;21.80;99.90;;;;;;5026857;28;20489;-75
2022/09/12 09:27:09;;;;;;;7.35;5.03;;;21.70;99.90;;;;;;5032170;28;20028;-75
2022/09/12 09:29:40;;;;;;;5.50;4.45;;;21.80;99.90;;;;;;5042664;28;20034;-75
2022/09/12 09:32:17;;;;;;;6.35;4.35;;;21.90;99.90;;;;;;5045445;28;20477;-76
2022/09/12 09:34:43;;;;;;;4.95;4.40;;;21.90;99.90;;;;;;5033222;28;20376;-75
2022/09/12 09:37:18;;;;;;;6.22;4.35;;;22.00;99.90;;;;;;5029699;28;20025;-75
2022/09/12 09:40:11;;;;;;;6.38;4.10;;;22.10;99.90;;;;;;5029518;28;20493;-75
2022/09/12 09:42:52;;;;;;;6.97;4.10;;;22.10;99.90;;;;;;5045659;28;20103;-76
2022/09/12 09:45:23;;;;;;;5.80;4.20;;;22.20;99.90;;;;;;5032616;28;20025;-75
2022/09/12 09:48:18;;;;;;;6.22;4.03;;;22.20;99.90;;;;;;5033823;28;20053;-75
2022/09/12 09:50:46;;;;;;;8.10;4.60;;;22.10;99.90;;;;;;5048164;28;20100;-75
2022/09/12 09:53:18;;;;;;;6.75;3.72;;;22.20;99.90;;;;;;5041034;28;20086;-75
2022/09/12 09:55:45;;;;;;;6.03;4.43;;;22.40;99.90;;;;;;5045600;28;20020;-75
2022/09/12 09:58:10;;;;;;;6.40;4.18;;;22.50;99.90;;;;;;5034060;28;20111;-75
2022/09/12 10:00:37;;;;;;;6.30;3.75;;;22.60;99.90;;;;;;5034025;28;20076;-75
2022/09/12 10:03:08;;;;;;;5.22;4.25;;;22.70;99.90;;;;;;5034089;28;20164;-75
2022/09/12 10:06:13;;;;;;;4.95;3.85;;;22.90;99.90;;;;;;5033713;28;20516;-75
2022/09/12 10:08:39;;;;;;;4.85;3.83;;;23.00;99.90;;;;;;5033994;28;20025;-75
2022/09/12 10:11:15;;;;;;;6.53;4.10;;;23.00;99.90;;;;;;5033710;28;20033;-76
2022/09/12 10:13:55;;;;;;;5.05;4.10;;;23.10;99.90;;;;;;5033736;28;20160;-76
2022/09/12 10:16:22;;;;;;;7.30;4.40;;;23.10;99.90;;;;;;5033893;28;20026;-75
2022/09/12 10:18:52;;;;;;;6.88;4.75;;;23.20;99.90;;;;;;5033628;28;20028;-75
2022/09/12 10:21:49;;;;;;;6.88;4.45;;;23.20;99.90;;;;;;5033895;28;20080;-75
2022/09/12 10:24:23;;;;;;;5.68;4.45;;;23.30;99.90;;;;;;5033483;28;20029;-76
2022/09/12 10:26:54;;;;;;;7.30;4.20;;;23.20;99.90;;;;;;5033673;28;20037;-76
2022/09/12 10:29:30;;;;;;;7.10;4.10;;;23.20;99.90;;;;;;5033588;28;20053;-76
2022/09/12 10:31:59;;;;;;;6.00;4.78;;;23.20;99.90;;;;;;5034453;28;20029;-76
2022/09/12 10:34:43;;;;;;;12.43;4.95;;;23.20;99.90;;;;;;5048374;28;20032;-75
2022/09/12 10:37:18;;;;;;;6.93;5.20;;;23.30;99.90;;;;;;5050863;28;20043;-75
2022/09/12 10:39:52;;;;;;;8.40;5.47;;;23.40;99.90;;;;;;5033836;28;20491;-76
2022/09/12 10:42:42;;;;;;;7.40;5.40;;;23.50;99.90;;;;;;5035480;28;20481;-75
2022/09/12 10:45:35;;;;;;;8.02;5.15;;;23.50;99.90;;;;;;5032190;28;20394;-76
2022/09/12 10:48:23;;;;;;;10.05;5.40;;;23.50;99.90;;;;;;5030306;28;20040;-76
2022/09/12 10:50:49;;;;;;;10.82;5.28;;;23.50;99.90;;;;;;5032637;28;20041;-73
2022/09/12 10:53:30;;;;;;;6.78;5.00;;;23.60;99.90;;;;;;5033015;28;20022;-73
2022/09/12 10:56:13;;;;;;;7.47;5.25;;;23.80;99.90;;;;;;5032604;28;20536;-72
2022/09/12 10:59:16;;;;;;;5.63;3.70;;;23.90;99.90;;;;;;5029579;28;20378;-73
2022/09/12 11:01:58;;;;;;;9.93;4.45;;;24.00;99.90;;;;;;5032614;28;20029;-72
2022/09/12 11:04:48;;;;;;;8.77;4.03;;;24.00;99.90;;;;;;5031463;28;20449;-72
2022/09/12 11:07:35;;;;;;;5.25;3.28;;;24.00;99.80;;;;;;5027693;28;20152;-72
2022/09/12 11:10:08;;;;;;;9.05;3.92;;;24.10;99.60;;;;;;5032099;28;20499;-72
2022/09/12 11:12:52;;;;;;;4.72;3.30;;;24.10;99.10;;;;;;5029679;28;20060;-72
2022/09/12 11:15:23;;;;;;;6.40;3.22;;;24.10;98.60;;;;;;5034083;28;20473;-72
2022/09/12 11:18:14;;;;;;;7.05;2.95;;;24.20;98.80;;;;;;5032788;28;20640;-72
2022/09/12 11:21:01;;;;;;;5.68;2.92;;;24.30;98.90;;;;;;5032462;28;20030;-73
2022/09/12 11:23:36;;;;;;;4.03;3.05;;;24.40;98.20;;;;;;5032189;28;20032;-72
2022/09/12 11:26:25;;;;;;;7.28;3.90;;;24.50;98.30;;;;;;5032450;28;20048;-72
2022/09/12 11:29:16;;;;;;;6.90;3.20;;;24.60;97.70;;;;;;5032253;28;20041;-72
2022/09/12 11:32:19;;;;;;;5.25;3.28;;;24.50;97.70;;;;;;5020456;28;20031;-73
2022/09/12 11:34:58;;;;;;;4.97;3.28;;;24.60;97.50;;;;;;5031858;28;20033;-73
2022/09/12 11:37:46;;;;;;;4.45;2.83;;;24.60;97.50;;;;;;5028741;28;20030;-73
2022/09/12 11:40:51;;;;;;;5.60;2.83;;;24.70;97.10;;;;;;5020213;28;20095;-73
2022/09/12 11:43:42;;;;;;;4.82;2.88;;;24.80;96.70;;;;;;5031127;28;21252;-73
2022/09/12 11:46:21;;;;;;;4.00;2.67;;;24.80;96.50;;;;;;5031901;28;20109;-73
2022/09/12 11:48:58;;;;;;;2.92;2.63;;;24.90;96.70;;;;;;5029510;28;20106;-72
2022/09/12 11:51:48;;;;;;;4.30;2.70;;;24.90;96.40;;;;;;5031888;28;20037;-72
2022/09/12 11:54:41;;;;;;;4.68;2.90;;;25.10;96.20;;;;;;5031117;28;20116;-73
2022/09/12 11:57:28;;;;;;;3.42;2.40;;;25.20;96.00;;;;;;5030923;28;20473;-73
2022/09/12 12:00:03;;;;;;;4.85;2.60;;;25.30;95.70;;;;;;5022413;28;20474;-73
2022/09/12 12:02:30;;;;;;;;;;;25.40;94.70;;;;;;5030947;28;20446;-73
2022/09/12 12:05:01;;;;;;;5.00;2.75;;;25.40;93.90;;;;;;5045906;28;19912;-74
2022/09/12 12:07:36;;;;;;;4.70;2.60;;;25.50;94.40;;;;;;5047905;28;20455;-71
2022/09/12 12:10:04;;;;;;;4.35;2.78;;;25.50;94.00;;;;;;5022704;28;20401;-72
2022/09/12 12:12:30;;;;;;;3.45;2.47;;;25.50;93.80;;;;;;5031589;28;20394;-72
2022/09/12 12:14:57;;;;;;;3.75;2.80;;;25.40;94.00;;;;;;5031073;28;20523;-72
2022/09/12 12:17:24;;;;;;;5.57;2.75;;;25.30;93.90;;;;;;5031103;28;20033;-72
2022/09/12 12:20:02;;;;;;;5.65;2.75;;;25.40;94.10;;;;;;5030877;28;20083;-72
2022/09/12 12:22:28;;;;;;;5.15;2.53;;;25.40;93.60;;;;;;5031345;28;20060;-72
2022/09/12 12:25:11;;;;;;;5.22;2.78;;;25.50;93.70;;;;;;5031207;28;20029;-71
2022/09/12 12:27:50;;;;;;;4.93;2.88;;;25.60;93.20;;;;;;5031000;28;20029;-73
2022/09/12 12:30:28;;;;;;;5.32;2.53;;;25.50;93.00;;;;;;5028464;28;20504;-73
2022/09/12 12:33:01;;;;;;;6.20;3.25;;;25.50;92.70;;;;;;5027300;28;20017;-73
2022/09/12 12:35:36;;;;;;;6.45;3.88;;;25.50;92.60;;;;;;5026997;28;20033;-73
2022/09/12 12:38:04;;;;;;;4.75;2.92;;;25.40;92.70;;;;;;5027116;28;20021;-73
2022/09/12 12:40:30;;;;;;;3.50;2.67;;;25.40;92.90;;;;;;5030266;28;20410;-73
2022/09/12 12:43:02;;;;;;;6.20;2.20;;;25.50;92.70;;;;;;5030596;28;20018;-73
2022/09/12 12:45:28;;;;;;;4.20;2.40;;;25.50;92.30;;;;;;5030676;28;20052;-73
2022/09/12 12:48:22;;;;;;;4.25;3.22;;;25.60;92.20;;;;;;5030742;28;20095;-73
2022/09/12 12:50:47;;;;;;;5.85;2.78;;;25.60;92.00;;;;;;5035864;28;20033;-73
2022/09/12 12:53:26;;;;;;;4.35;2.70;;;25.70;92.00;;;;;;5035077;28;20482;-73
2022/09/12 12:55:55;;;;;;;4.50;2.70;;;25.80;91.70;;;;;;5030943;28;20108;-73
2022/09/12 12:58:26;;;;;;;4.30;2.67;;;25.90;91.20;;;;;;5042418;28;20025;-73
2022/09/12 13:01:21;;;;;;;3.67;3.10;;;25.90;91.10;;;;;;5032398;28;20037;-73